createdAt,value
2022-12-31T00:00:36.550Z,6.30
2022-12-31T00:03:05.478Z,6.30
2022-12-31T00:05:34.679Z,6.30
2022-12-31T00:08:02.979Z,6.30
2022-12-31T00:10:31.234Z,6.30
2022-12-31T00:13:00.899Z,6.30
2022-12-31T00:15:29.426Z,6.30
2022-12-31T00:17:57.621Z,6.20
2022-12-31T00:20:25.783Z,6.20
2022-12-31T00:22:53.982Z,6.20
2022-12-31T00:25:22.267Z,6.20
2022-12-31T00:27:50.863Z,6.20
2022-12-31T00:30:20.598Z,6.20
2022-12-31T00:32:48.815Z,6.10
2022-12-31T00:35:19.392Z,6.10
2022-12-31T00:37:47.656Z,6.10
2022-12-31T00:40:15.969Z,6.10
2022-12-31T00:42:44.154Z,6.10
2022-12-31T00:45:12.655Z,6.00
2022-12-31T00:47:42.288Z,6.00
2022-12-31T00:50:10.950Z,6.00
2022-12-31T00:52:39.129Z,6.00
2022-12-31T00:55:08.538Z,6.00
2022-12-31T00:57:36.752Z,5.90
2022-12-31T01:00:07.624Z,5.90
2022-12-31T01:02:36.084Z,5.90
2022-12-31T01:05:06.717Z,5.90
2022-12-31T01:07:38.962Z,5.90
2022-12-31T01:10:08.052Z,5.90
2022-12-31T01:12:36.235Z,5.80
2022-12-31T01:15:04.738Z,5.90
2022-12-31T01:17:33.035Z,5.90
2022-12-31T01:20:05.284Z,5.90
2022-12-31T01:22:33.525Z,5.90
2022-12-31T01:25:01.656Z,5.90
2022-12-31T01:27:30.461Z,5.90
2022-12-31T01:29:58.695Z,5.90
2022-12-31T01:32:26.889Z,5.90
2022-12-31T01:34:55.099Z,5.80
2022-12-31T01:37:24.721Z,5.90
2022-12-31T01:39:52.896Z,5.90
2022-12-31T01:42:21.213Z,6.00
2022-12-31T01:44:55.795Z,6.00
2022-12-31T01:47:34.179Z,6.00
2022-12-31T01:50:07.715Z,5.90
2022-12-31T01:52:43.589Z,5.90
2022-12-31T01:55:22.399Z,5.90
2022-12-31T01:57:56.669Z,6.00
2022-12-31T02:00:24.996Z,6.00
2022-12-31T02:02:53.761Z,5.90
2022-12-31T02:05:28.400Z,6.00
2022-12-31T02:08:00.843Z,6.00
2022-12-31T02:10:29.404Z,6.10
2022-12-31T02:12:57.899Z,6.10
2022-12-31T02:15:34.984Z,6.10
2022-12-31T02:18:11.842Z,6.10
2022-12-31T02:21:09.868Z,6.10
2022-12-31T02:24:05.332Z,6.20
2022-12-31T02:26:59.787Z,6.20
2022-12-31T02:29:51.463Z,6.20
2022-12-31T02:32:25.319Z,6.20
2022-12-31T02:34:57.782Z,6.30
2022-12-31T02:37:28.375Z,6.20
2022-12-31T02:39:59.564Z,6.20
2022-12-31T02:42:27.713Z,6.20
2022-12-31T02:44:55.926Z,6.20
2022-12-31T02:47:39.364Z,6.20
2022-12-31T02:50:24.595Z,6.30
2022-12-31T02:53:04.552Z,6.30
2022-12-31T02:55:41.345Z,6.30
2022-12-31T02:58:17.808Z,6.30
2022-12-31T03:01:09.954Z,6.30
2022-12-31T03:03:40.354Z,6.40
2022-12-31T03:06:10.708Z,6.40
2022-12-31T03:08:56.733Z,6.40
2022-12-31T03:11:38.805Z,6.40
2022-12-31T03:14:07.009Z,6.40
2022-12-31T03:16:35.242Z,6.40
2022-12-31T03:19:23.449Z,6.50
2022-12-31T03:22:08.890Z,6.50
2022-12-31T03:24:54.342Z,6.50
2022-12-31T03:27:22.624Z,6.50
2022-12-31T03:29:50.769Z,6.60
2022-12-31T03:32:18.922Z,6.60
2022-12-31T03:34:48.626Z,6.60
2022-12-31T03:37:16.777Z,6.60
2022-12-31T03:39:44.968Z,6.70
2022-12-31T03:42:13.166Z,6.70
2022-12-31T03:44:41.374Z,6.70
2022-12-31T03:47:12.073Z,6.80
2022-12-31T03:49:40.295Z,6.80
2022-12-31T03:52:09.889Z,6.80
2022-12-31T03:54:38.034Z,6.80
2022-12-31T03:57:06.202Z,6.90
2022-12-31T03:59:34.402Z,6.90
2022-12-31T04:02:02.777Z,6.90
2022-12-31T04:04:31.887Z,6.90
2022-12-31T04:07:00.173Z,6.90
2022-12-31T04:09:29.917Z,6.90
2022-12-31T04:11:58.099Z,7.00
2022-12-31T04:14:26.281Z,7.10
2022-12-31T04:16:54.490Z,7.00
2022-12-31T04:19:22.764Z,7.10
2022-12-31T04:21:51.009Z,7.10
2022-12-31T04:24:19.211Z,7.10
2022-12-31T04:26:48.722Z,7.20
2022-12-31T04:29:17.024Z,7.20
2022-12-31T04:31:45.195Z,7.30
2022-12-31T04:34:13.405Z,7.30
2022-12-31T04:36:41.582Z,7.30
2022-12-31T04:39:10.213Z,7.30
2022-12-31T04:41:38.361Z,7.40
2022-12-31T04:44:07.929Z,7.40
2022-12-31T04:46:36.145Z,7.50
2022-12-31T04:49:04.531Z,7.50
2022-12-31T04:51:33.823Z,7.50
2022-12-31T04:54:02.273Z,7.50
2022-12-31T04:56:32.543Z,7.50
2022-12-31T04:59:00.752Z,7.50
2022-12-31T05:01:30.382Z,7.50
2022-12-31T05:03:58.808Z,7.60
2022-12-31T05:06:27.056Z,7.60
2022-12-31T05:08:55.306Z,7.60
2022-12-31T05:11:23.551Z,7.60
2022-12-31T05:13:51.782Z,7.70
2022-12-31T05:16:19.979Z,7.80
2022-12-31T05:18:51.984Z,7.80
2022-12-31T05:21:22.110Z,7.80
2022-12-31T05:23:50.554Z,7.90
2022-12-31T05:26:18.869Z,7.90
2022-12-31T05:28:47.049Z,7.90
2022-12-31T05:31:15.353Z,7.90
2022-12-31T05:33:43.518Z,8.00
2022-12-31T05:36:15.869Z,8.00
2022-12-31T05:38:44.194Z,8.10
2022-12-31T05:41:12.526Z,8.10
2022-12-31T05:43:40.692Z,8.10
2022-12-31T05:46:09.312Z,8.20
2022-12-31T05:48:37.493Z,8.20
2022-12-31T05:51:06.100Z,8.10
2022-12-31T05:53:35.611Z,8.20
2022-12-31T05:56:03.807Z,8.20
2022-12-31T05:58:31.955Z,8.20
2022-12-31T06:01:00.261Z,8.30
2022-12-31T06:03:28.494Z,8.30
2022-12-31T06:05:56.748Z,8.30
2022-12-31T06:08:27.235Z,8.40
2022-12-31T06:10:56.742Z,8.40
2022-12-31T06:13:24.978Z,8.40
2022-12-31T06:15:55.458Z,8.50
2022-12-31T06:18:23.634Z,8.50
2022-12-31T06:20:51.802Z,8.50
2022-12-31T06:23:20.093Z,8.60
2022-12-31T06:25:48.236Z,8.60
2022-12-31T06:28:20.329Z,8.70
2022-12-31T06:30:49.459Z,8.70
2022-12-31T06:33:20.110Z,8.70
2022-12-31T06:35:48.280Z,8.70
2022-12-31T06:38:16.443Z,8.80
2022-12-31T06:40:44.591Z,8.80
2022-12-31T06:43:12.825Z,8.90
2022-12-31T06:45:43.369Z,8.90
2022-12-31T06:48:11.706Z,8.90
2022-12-31T06:50:41.064Z,9.00
2022-12-31T06:53:09.321Z,9.00
2022-12-31T06:55:37.996Z,9.00
2022-12-31T06:58:06.709Z,9.10
2022-12-31T07:00:35.308Z,9.10
2022-12-31T07:03:19.529Z,9.10
2022-12-31T07:05:51.933Z,9.10
2022-12-31T07:08:32.384Z,9.10
2022-12-31T07:11:05.140Z,9.10
2022-12-31T07:14:01.048Z,9.10
2022-12-31T07:16:45.323Z,9.20
2022-12-31T07:19:29.531Z,9.20
2022-12-31T07:21:59.586Z,9.30
2022-12-31T07:24:28.783Z,9.30
2022-12-31T07:27:23.339Z,9.30
2022-12-31T07:30:04.189Z,9.30
2022-12-31T07:32:45.446Z,9.40
2022-12-31T07:35:23.111Z,9.40
2022-12-31T07:38:00.689Z,9.40
2022-12-31T07:40:39.414Z,9.40
2022-12-31T07:43:16.871Z,9.50
2022-12-31T07:45:50.270Z,9.50
2022-12-31T07:48:25.423Z,9.60
2022-12-31T07:50:56.622Z,9.60
2022-12-31T07:53:26.061Z,9.60
2022-12-31T07:55:57.391Z,9.60
2022-12-31T07:58:33.476Z,9.70
2022-12-31T08:01:02.889Z,9.70
2022-12-31T08:03:48.901Z,9.80
2022-12-31T08:06:26.188Z,9.90
2022-12-31T08:09:04.986Z,9.90
2022-12-31T08:11:39.394Z,10.00
2022-12-31T08:14:11.226Z,10.10
2022-12-31T08:16:40.098Z,10.10
2022-12-31T08:19:13.894Z,10.10
2022-12-31T08:21:55.392Z,10.20
2022-12-31T08:24:31.504Z,10.20
2022-12-31T08:27:06.370Z,10.20
2022-12-31T08:29:46.095Z,10.30
2022-12-31T08:32:22.263Z,10.30
2022-12-31T08:35:00.189Z,10.30
2022-12-31T08:37:37.777Z,10.40
2022-12-31T08:40:17.954Z,10.40
2022-12-31T08:42:56.987Z,10.40
2022-12-31T08:45:29.537Z,10.50
2022-12-31T08:48:02.672Z,10.50
2022-12-31T08:50:33.963Z,10.60
2022-12-31T08:53:04.368Z,10.60
2022-12-31T08:55:33.122Z,10.60
2022-12-31T08:58:11.547Z,10.70
2022-12-31T09:00:41.735Z,10.80
2022-12-31T09:03:53.852Z,10.80
2022-12-31T09:06:28.521Z,10.90
2022-12-31T09:09:05.889Z,10.90
2022-12-31T09:11:43.662Z,11.00
2022-12-31T09:14:24.275Z,11.10
2022-12-31T09:17:01.209Z,11.10
2022-12-31T09:19:29.693Z,11.20
2022-12-31T09:21:58.319Z,11.30
2022-12-31T09:24:28.603Z,11.30
2022-12-31T09:27:06.432Z,11.40
2022-12-31T09:29:47.111Z,11.50
2022-12-31T09:32:24.436Z,11.50
2022-12-31T09:34:58.561Z,11.50
2022-12-31T09:37:39.643Z,11.60
2022-12-31T09:40:39.083Z,11.60
2022-12-31T09:44:00.712Z,11.70
2022-12-31T09:47:11.444Z,11.90
2022-12-31T09:50:01.372Z,11.90
2022-12-31T09:52:40.863Z,12.00
2022-12-31T09:55:32.637Z,12.10
2022-12-31T09:58:13.658Z,12.20
2022-12-31T10:00:46.675Z,12.30
2022-12-31T10:03:30.844Z,12.30
2022-12-31T10:06:22.680Z,12.40
2022-12-31T10:09:16.271Z,12.50
2022-12-31T10:12:07.390Z,12.60
2022-12-31T10:14:56.789Z,12.60
2022-12-31T10:17:38.832Z,12.70
2022-12-31T10:20:28.728Z,12.80
2022-12-31T10:23:16.091Z,13.00
2022-12-31T10:26:10.068Z,13.10
2022-12-31T10:28:49.103Z,13.30
2022-12-31T10:31:34.161Z,13.50
2022-12-31T10:34:14.028Z,13.60
2022-12-31T10:36:54.950Z,13.90
2022-12-31T10:39:45.718Z,14.10
2022-12-31T10:42:41.396Z,14.40
2022-12-31T10:46:10.022Z,14.50
2022-12-31T10:49:00.206Z,14.60
2022-12-31T10:52:10.595Z,14.70
2022-12-31T10:55:13.987Z,14.70
2022-12-31T10:58:23.041Z,14.70
2022-12-31T11:00:59.546Z,14.60
2022-12-31T11:04:00.215Z,14.60
2022-12-31T11:06:54.780Z,14.60
2022-12-31T11:10:02.204Z,14.60
2022-12-31T11:12:52.741Z,14.50
2022-12-31T11:15:39.460Z,14.50
2022-12-31T11:18:16.624Z,14.50
2022-12-31T11:21:15.240Z,14.50
2022-12-31T11:23:56.473Z,14.50
2022-12-31T11:26:38.469Z,14.50
2022-12-31T11:29:25.562Z,14.50
2022-12-31T11:32:16.313Z,14.40
2022-12-31T11:35:03.365Z,14.40
2022-12-31T11:37:41.429Z,14.30
2022-12-31T11:40:39.996Z,14.30
2022-12-31T11:43:22.106Z,14.20
2022-12-31T11:46:21.338Z,14.20
2022-12-31T11:49:08.560Z,14.10
2022-12-31T11:51:57.151Z,14.10
2022-12-31T11:54:50.744Z,14.00
2022-12-31T11:57:27.268Z,14.00
2022-12-31T11:59:58.898Z,14.00
2022-12-31T12:02:29.388Z,14.00
2022-12-31T12:05:06.572Z,14.00
2022-12-31T12:07:40.853Z,14.00
2022-12-31T12:10:24.121Z,14.00
2022-12-31T12:12:53.398Z,14.00
2022-12-31T12:15:25.339Z,14.00
2022-12-31T12:17:56.346Z,13.90
2022-12-31T12:20:31.396Z,14.00
2022-12-31T12:23:01.486Z,14.00
2022-12-31T12:25:40.859Z,14.00
2022-12-31T12:28:21.617Z,14.00
2022-12-31T12:30:56.579Z,14.00
2022-12-31T12:33:29.723Z,14.10
2022-12-31T12:36:09.313Z,14.10
2022-12-31T12:38:38.711Z,14.10
2022-12-31T12:41:19.239Z,14.00
2022-12-31T12:43:47.762Z,14.00
2022-12-31T12:46:24.204Z,13.90
2022-12-31T12:48:57.806Z,13.80
2022-12-31T12:51:43.556Z,13.80
2022-12-31T12:54:25.876Z,13.70
2022-12-31T12:57:03.948Z,13.70
2022-12-31T12:59:50.801Z,13.70
2022-12-31T13:02:38.353Z,13.70
2022-12-31T13:05:22.963Z,13.60
2022-12-31T13:08:05.069Z,13.60
2022-12-31T13:10:52.375Z,13.60
2022-12-31T13:13:29.182Z,13.60
2022-12-31T13:16:05.755Z,13.60
2022-12-31T13:18:42.945Z,13.70
2022-12-31T13:21:22.724Z,13.60
2022-12-31T13:23:57.964Z,13.60
2022-12-31T13:26:31.345Z,13.60
2022-12-31T13:29:04.451Z,13.60
2022-12-31T13:31:36.363Z,13.50
2022-12-31T13:34:09.516Z,13.50
2022-12-31T13:36:41.400Z,13.50
2022-12-31T13:39:16.981Z,13.50
2022-12-31T13:41:51.651Z,13.50
2022-12-31T13:44:30.556Z,13.50
2022-12-31T13:47:04.701Z,13.60
2022-12-31T13:49:38.348Z,13.60
2022-12-31T13:52:22.825Z,13.60
2022-12-31T13:54:57.401Z,13.50
2022-12-31T13:57:36.153Z,13.50
2022-12-31T14:00:08.290Z,13.50
2022-12-31T14:02:47.206Z,13.60
2022-12-31T14:05:20.721Z,13.60
2022-12-31T14:07:53.878Z,13.60
2022-12-31T14:10:30.382Z,13.60
2022-12-31T14:13:07.679Z,13.60
2022-12-31T14:15:43.138Z,13.60
2022-12-31T14:18:21.739Z,13.60
2022-12-31T14:20:56.032Z,13.60
2022-12-31T14:23:43.928Z,13.60
2022-12-31T14:26:20.698Z,13.60
2022-12-31T14:29:02.233Z,13.60
2022-12-31T14:31:47.041Z,13.60
2022-12-31T14:34:23.059Z,13.60
2022-12-31T14:36:59.495Z,13.60
2022-12-31T14:39:43.376Z,13.60
2022-12-31T14:42:21.596Z,13.70
2022-12-31T14:45:05.898Z,13.70
2022-12-31T14:47:48.591Z,13.70
2022-12-31T14:50:18.928Z,13.70
2022-12-31T14:52:53.214Z,13.70
2022-12-31T14:55:25.458Z,13.80
2022-12-31T14:58:26.635Z,13.80
2022-12-31T15:00:54.507Z,13.80
2022-12-31T15:03:40.004Z,13.80
2022-12-31T15:06:39.807Z,13.80
2022-12-31T15:09:18.620Z,13.90
2022-12-31T15:12:22.764Z,13.90
2022-12-31T15:15:20.465Z,14.00
2022-12-31T15:18:04.608Z,13.90
2022-12-31T15:21:23.653Z,14.00
2022-12-31T15:23:53.437Z,14.00
2022-12-31T15:26:25.234Z,14.00
2022-12-31T15:29:00.631Z,14.00
2022-12-31T15:31:33.529Z,14.10
2022-12-31T15:34:06.251Z,14.10
2022-12-31T15:36:36.132Z,14.10
2022-12-31T15:39:26.693Z,14.10
2022-12-31T15:42:36.118Z,14.10
2022-12-31T15:44:50.725Z,14.20
2022-12-31T15:47:29.391Z,14.20
2022-12-31T15:50:00.885Z,14.20
2022-12-31T15:52:37.796Z,14.20
2022-12-31T15:55:08.795Z,14.20
2022-12-31T15:57:40.965Z,14.30
2022-12-31T16:00:17.188Z,14.30
2022-12-31T16:02:46.506Z,14.30
2022-12-31T16:05:21.184Z,14.30
2022-12-31T16:07:49.759Z,14.40
2022-12-31T16:10:27.853Z,14.30
2022-12-31T16:12:58.418Z,14.30
2022-12-31T16:15:29.160Z,14.40
2022-12-31T16:18:02.781Z,14.40
2022-12-31T16:20:33.630Z,14.40
2022-12-31T16:23:04.433Z,14.40
2022-12-31T16:25:34.305Z,14.40
2022-12-31T16:28:04.669Z,14.40
2022-12-31T16:30:35.824Z,14.40
2022-12-31T16:33:06.619Z,14.50
2022-12-31T16:35:36.584Z,14.50
2022-12-31T16:38:13.515Z,14.50
2022-12-31T16:40:45.072Z,14.50
2022-12-31T16:43:26.975Z,14.50
2022-12-31T16:45:59.096Z,14.60
2022-12-31T16:48:27.804Z,14.60
2022-12-31T16:50:57.505Z,14.60
2022-12-31T16:53:29.932Z,14.60
2022-12-31T16:56:04.411Z,14.60
2022-12-31T16:58:35.687Z,14.60
2022-12-31T17:01:14.359Z,14.50
2022-12-31T17:03:45.718Z,14.50
2022-12-31T17:06:16.542Z,14.50
2022-12-31T17:08:46.930Z,14.50
2022-12-31T17:11:28.740Z,14.50
2022-12-31T17:13:59.782Z,14.50
2022-12-31T17:16:28.472Z,14.50
2022-12-31T17:18:56.802Z,14.40
2022-12-31T17:21:28.460Z,14.40
2022-12-31T17:24:01.960Z,14.40
2022-12-31T17:26:33.920Z,14.40
2022-12-31T17:29:05.927Z,14.40
2022-12-31T17:31:39.364Z,14.40
2022-12-31T17:34:23.727Z,14.40
2022-12-31T17:37:01.440Z,14.40
2022-12-31T17:39:45.600Z,14.50
2022-12-31T17:42:29.084Z,14.50
2022-12-31T17:45:00.444Z,14.50
2022-12-31T17:47:36.009Z,14.50
2022-12-31T17:50:19.724Z,14.50
2022-12-31T17:52:48.200Z,14.50
2022-12-31T17:55:16.852Z,14.50
2022-12-31T17:57:53.698Z,14.50
2022-12-31T18:00:24.767Z,14.50
2022-12-31T18:02:55.668Z,14.50
2022-12-31T18:05:25.853Z,14.50
2022-12-31T18:07:54.568Z,14.50
2022-12-31T18:10:25.168Z,14.50
2022-12-31T18:12:58.936Z,14.50
2022-12-31T18:15:27.135Z,14.50
2022-12-31T18:17:55.378Z,14.50
2022-12-31T18:20:25.094Z,14.50
2022-12-31T18:22:53.789Z,14.60
2022-12-31T18:25:24.508Z,14.60
2022-12-31T18:27:53.566Z,14.70
2022-12-31T18:30:23.505Z,14.70
2022-12-31T18:32:51.924Z,14.70
2022-12-31T18:35:49.056Z,14.70
2022-12-31T18:38:13.758Z,14.80
2022-12-31T18:40:46.542Z,14.80
2022-12-31T18:43:17.557Z,14.80
2022-12-31T18:45:47.898Z,14.90
2022-12-31T18:48:18.835Z,14.90
2022-12-31T18:50:47.947Z,15.00
2022-12-31T18:53:18.450Z,15.00
2022-12-31T18:55:49.519Z,15.00
2022-12-31T18:58:18.231Z,15.00
2022-12-31T19:00:48.442Z,15.10
2022-12-31T19:03:18.510Z,15.10
2022-12-31T19:05:49.715Z,15.10
2022-12-31T19:08:18.101Z,15.10
2022-12-31T19:10:47.293Z,15.20
2022-12-31T19:13:17.330Z,15.20
2022-12-31T19:15:49.722Z,15.20
2022-12-31T19:18:18.362Z,15.20
2022-12-31T19:20:47.118Z,15.20
2022-12-31T19:23:18.030Z,15.20
2022-12-31T19:25:47.648Z,15.30
2022-12-31T19:28:18.538Z,15.30
2022-12-31T19:30:48.493Z,15.20
2022-12-31T19:33:17.575Z,15.30
2022-12-31T19:35:46.483Z,15.30
2022-12-31T19:38:19.816Z,15.30
2022-12-31T19:40:49.196Z,15.30
2022-12-31T19:43:20.118Z,15.30
2022-12-31T19:45:50.434Z,15.30
2022-12-31T19:48:28.581Z,15.20
2022-12-31T19:51:00.433Z,15.20
2022-12-31T19:53:29.385Z,15.20
2022-12-31T19:55:57.513Z,15.20
2022-12-31T19:58:27.396Z,15.20
2022-12-31T20:01:02.712Z,15.20
2022-12-31T20:03:32.685Z,15.20
2022-12-31T20:06:06.784Z,15.10
2022-12-31T20:08:35.696Z,15.10
2022-12-31T20:11:09.235Z,15.10
2022-12-31T20:13:38.045Z,15.10
2022-12-31T20:16:09.241Z,15.10
2022-12-31T20:18:38.540Z,15.10
2022-12-31T20:21:10.834Z,15.10
2022-12-31T20:23:39.080Z,15.10
2022-12-31T20:26:07.777Z,15.00
2022-12-31T20:28:37.369Z,15.10
2022-12-31T20:31:12.087Z,15.10
2022-12-31T20:33:40.688Z,15.10
2022-12-31T20:36:11.859Z,15.10
2022-12-31T20:38:40.251Z,15.10
2022-12-31T20:41:12.607Z,15.10
2022-12-31T20:43:41.429Z,15.10
2022-12-31T20:46:15.765Z,15.10
2022-12-31T20:48:45.077Z,15.10
2022-12-31T20:51:14.143Z,15.10
2022-12-31T20:53:48.649Z,15.10
2022-12-31T20:56:18.040Z,15.10
2022-12-31T20:58:46.272Z,15.10
2022-12-31T21:01:17.308Z,15.10
2022-12-31T21:06:36.021Z,15.10
2022-12-31T21:09:07.477Z,15.10
2022-12-31T21:11:53.297Z,15.10
2022-12-31T21:14:21.840Z,15.10
2022-12-31T21:16:51.904Z,15.10
2022-12-31T21:19:20.087Z,15.10
2022-12-31T21:21:50.488Z,15.10
2022-12-31T21:24:23.483Z,15.10
2022-12-31T21:26:52.301Z,15.10
2022-12-31T21:29:22.855Z,15.10
2022-12-31T21:31:54.675Z,15.00
2022-12-31T21:34:22.846Z,15.00
2022-12-31T21:36:51.019Z,15.10
2022-12-31T21:39:19.159Z,15.00
2022-12-31T21:41:53.020Z,15.00
2022-12-31T21:44:22.580Z,15.00
2022-12-31T21:47:33.199Z,15.00
2022-12-31T21:49:44.141Z,15.00
2022-12-31T21:52:27.578Z,15.00
2022-12-31T21:55:13.618Z,15.00
2022-12-31T21:58:15.683Z,15.00
2022-12-31T22:00:47.653Z,15.00
2022-12-31T22:03:28.567Z,15.00
2022-12-31T22:06:00.655Z,14.90
2022-12-31T22:08:30.995Z,14.90
2022-12-31T22:11:01.723Z,14.90
2022-12-31T22:13:29.970Z,14.90
2022-12-31T22:16:04.626Z,14.90
2022-12-31T22:18:35.789Z,14.90
2022-12-31T22:21:13.753Z,14.90
2022-12-31T22:23:46.376Z,14.90
2022-12-31T22:26:16.618Z,14.90
2022-12-31T22:28:46.001Z,14.90
2022-12-31T22:31:15.737Z,14.80
2022-12-31T22:33:44.330Z,14.90
2022-12-31T22:36:15.300Z,14.90
2022-12-31T22:38:43.839Z,14.90
2022-12-31T22:41:13.873Z,14.90
2022-12-31T22:43:44.060Z,14.80
2022-12-31T22:46:14.055Z,14.80
2022-12-31T22:48:42.949Z,14.80
2022-12-31T22:51:15.526Z,14.80
2022-12-31T22:53:43.947Z,14.80
2022-12-31T22:56:14.985Z,14.90
2022-12-31T22:58:43.174Z,14.90
2022-12-31T23:01:19.113Z,14.80
2022-12-31T23:03:47.997Z,14.90
2022-12-31T23:06:17.832Z,14.90
2022-12-31T23:09:06.794Z,14.90
2022-12-31T23:11:35.849Z,14.90
2022-12-31T23:14:21.740Z,14.90
2022-12-31T23:17:29.520Z,14.90
2022-12-31T23:20:12.595Z,14.90
2022-12-31T23:22:59.796Z,14.90
2022-12-31T23:25:27.997Z,14.90
2022-12-31T23:27:56.149Z,14.90
2022-12-31T23:30:24.324Z,14.90
2022-12-31T23:32:52.686Z,14.90
2022-12-31T23:35:20.873Z,14.90
2022-12-31T23:37:50.490Z,14.90
2022-12-31T23:40:21.498Z,14.90
2022-12-31T23:42:50.546Z,15.00
2022-12-31T23:45:26.960Z,14.90
2022-12-31T23:47:58.014Z,15.00
2022-12-31T23:50:27.145Z,15.00
2022-12-31T23:52:56.734Z,15.00
2022-12-31T23:55:24.932Z,14.90
2022-12-31T23:57:53.123Z,15.00
